Map

Track Data

SID SEASON NUMBER BASIN SUBBASIN NAME ISO_TIME NATURE LAT LON WMO_WIND WMO_PRES WMO_AGENCY TRACK_TYPE DIST2LAND LANDFALL IFLAG USA_AGENCY USA_ATCF_ID USA_LAT USA_LON USA_RECORD USA_STATUS USA_WIND USA_PRES USA_SSHS USA_R34_NE USA_R34_SE USA_R34_SW USA_R34_NW USA_R50_NE USA_R50_SE USA_R50_SW USA_R50_NW USA_R64_NE USA_R64_SE USA_R64_SW USA_R64_NW USA_POCI USA_ROCI USA_RMW USA_EYE TOKYO_LAT TOKYO_LON TOKYO_GRADE TOKYO_WIND TOKYO_PRES TOKYO_R50_DIR TOKYO_R50_LONG TOKYO_R50_SHORT TOKYO_R30_DIR TOKYO_R30_LONG TOKYO_R30_SHORT TOKYO_LAND CMA_LAT CMA_LON CMA_CAT CMA_WIND CMA_PRES HKO_LAT HKO_LON HKO_CAT HKO_WIND HKO_PRES NEWDELHI_LAT NEWDELHI_LON NEWDELHI_GRADE NEWDELHI_WIND NEWDELHI_PRES NEWDELHI_CI NEWDELHI_DP NEWDELHI_POCI REUNION_LAT REUNION_LON REUNION_TYPE REUNION_WIND REUNION_PRES REUNION_TNUM REUNION_CI REUNION_RMW REUNION_R34_NE REUNION_R34_SE REUNION_R34_SW REUNION_R34_NW REUNION_R50_NE REUNION_R50_SE REUNION_R50_SW REUNION_R50_NW REUNION_R64_NE REUNION_R64_SE REUNION_R64_SW REUNION_R64_NW BOM_LAT BOM_LON BOM_TYPE BOM_WIND BOM_PRES BOM_TNUM BOM_CI BOM_RMW BOM_R34_NE BOM_R34_SE BOM_R34_SW BOM_R34_NW BOM_R50_NE BOM_R50_SE BOM_R50_SW BOM_R50_NW BOM_R64_NE BOM_R64_SE BOM_R64_SW BOM_R64_NW BOM_ROCI BOM_POCI BOM_EYE BOM_POS_METHOD BOM_PRES_METHOD NADI_LAT NADI_LON NADI_CAT NADI_WIND NADI_PRES WELLINGTON_LAT WELLINGTON_LON WELLINGTON_WIND WELLINGTON_PRES DS824_LAT DS824_LON DS824_STAGE DS824_WIND DS824_PRES TD9636_LAT TD9636_LON TD9636_STAGE TD9636_WIND TD9636_PRES TD9635_LAT TD9635_LON TD9635_WIND TD9635_PRES TD9635_ROCI NEUMANN_LAT NEUMANN_LON NEUMANN_CLASS NEUMANN_WIND NEUMANN_PRES MLC_LAT MLC_LON MLC_CLASS MLC_WIND MLC_PRES USA_GUST BOM_GUST BOM_GUST_PER REUNION_GUST REUNION_GUST_PER USA_SEAHGT USA_SEARAD_NE USA_SEARAD_SE USA_SEARAD_SW USA_SEARAD_NW STORM_SPEED STORM_DIR
1967166N27284 1967 37 NA NA NOT_NAMED 1967-06-14 12:00:00 TS 27.0000 -76.0000 hurdat_atl main 291 291 O_____________ hurdat_atl AL031967 27.0000 -76.0000 TD -1 2 76
1967166N27284 1967 37 NA NA NOT_NAMED 1967-06-14 15:00:00 TS 27.0274 -75.8771 main 298 298 P_____________ AL031967 27.0274 -75.8771 TD -1 3 53
1967166N27284 1967 37 NA NA NOT_NAMED 1967-06-14 18:00:00 TS 27.2000 -75.7000 hurdat_atl main 328 328 O_____________ hurdat_atl AL031967 27.2000 -75.7000 TD -1 7 34
1967166N27284 1967 37 NA NA NOT_NAMED 1967-06-14 21:00:00 TS 27.5926 -75.4431 main 380 380 P_____________ AL031967 27.5926 -75.4431 TD -1 9 29
1967166N27284 1967 37 NA NA NOT_NAMED 1967-06-15 00:00:00 TS 28.0000 -75.2000 hurdat_atl main 426 426 O_____________ hurdat_atl AL031967 28.0000 -75.2000 TD -1 7 31
1967166N27284 1967 37 NA NA NOT_NAMED 1967-06-15 03:00:00 TS 28.1574 -75.0622 main 450 450 P_____________ AL031967 28.1574 -75.0622 TD -1 3 30
1967166N27284 1967 37 NA NA NOT_NAMED 1967-06-15 06:00:00 TS 28.3000 -75.0000 hurdat_atl main 465 465 O_____________ hurdat_atl AL031967 28.3000 -75.0000 TD -1 5 10
1967166N27284 1967 37 NA NA NOT_NAMED 1967-06-15 09:00:00 TS 28.6200 -74.9701 main 491 491 P_____________ AL031967 28.6200 -74.9701 TD -1 7 0
1967166N27284 1967 37 NA NA NOT_NAMED 1967-06-15 12:00:00 TS 29.0000 -75.0000 hurdat_atl main 527 527 O_____________ hurdat_atl AL031967 29.0000 -75.0000 TD -1 8 353
1967166N27284 1967 37 NA NA NOT_NAMED 1967-06-15 15:00:00 TS 29.3725 -75.0700 main 534 528 P_____________ AL031967 29.3725 -75.0700 TD -1 7 346
1967166N27284 1967 37 NA NA NOT_NAMED 1967-06-15 18:00:00 TS 29.7000 -75.2000 hurdat_atl main 531 508 O_____________ hurdat_atl AL031967 29.7000 -75.2000 TD -1 6 333
1967166N27284 1967 37 NA NA NOT_NAMED 1967-06-15 21:00:00 TS 29.9226 -75.4000 main 508 480 P_____________ AL031967 29.9226 -75.4000 TD -1 5 319
1967166N27284 1967 37 NA NA NOT_NAMED 1967-06-16 00:00:00 TS 30.1000 -75.6000 hurdat_atl main 480 456 O_____________ hurdat_atl AL031967 30.1000 -75.6000 TD -1 5 322
1967166N27284 1967 37 NA NA NOT_NAMED 1967-06-16 03:00:00 TS 30.2850 -75.7226 main 456 431 P_____________ AL031967 30.2850 -75.7226 TD -1 4 337
1967166N27284 1967 37 NA NA NOT_NAMED 1967-06-16 06:00:00 TS 30.5000 -75.8000 hurdat_atl main 431 402 O_____________ hurdat_atl AL031967 30.5000 -75.8000 TD -1 5 353
1967166N27284 1967 37 NA NA NOT_NAMED 1967-06-16 09:00:00 TS 30.7922 -75.7981 main 402 368 P_____________ AL031967 30.7922 -75.7981 TD -1 6 352
1967166N27284 1967 37 NA NA NOT_NAMED 1967-06-16 12:00:00 TS 31.1000 -75.9000 hurdat_atl main 368 320 O_____________ hurdat_atl AL031967 31.1000 -75.9000 TD -1 7 321
1967166N27284 1967 37 NA NA NOT_NAMED 1967-06-16 15:00:00 TS 31.3657 -76.3344 main 320 279 P_____________ AL031967 31.3657 -76.3344 TD -1 9 303
1967166N27284 1967 37 NA NA NOT_NAMED 1967-06-16 18:00:00 TS 31.6000 -76.8000 hurdat_atl main 279 255 O_____________ hurdat_atl AL031967 31.6000 -76.8000 TD -1 7 311
1967166N27284 1967 37 NA NA NOT_NAMED 1967-06-16 21:00:00 TS 31.8220 -76.9506 main 252 227 P_____________ AL031967 31.8220 -76.9506 TD -1 5 327
1967166N27284 1967 37 NA NA NOT_NAMED 1967-06-17 00:00:00 TS 32.0000 -77.1000 hurdat_atl main 227 200 O_____________ hurdat_atl AL031967 32.0000 -77.1000 TD -1 6 298
1967166N27284 1967 37 NA NA NOT_NAMED 1967-06-17 03:00:00 TS 32.0855 -77.5353 main 200 158 P_____________ AL031967 32.0855 -77.5353 TD -1 8 285
1967166N27284 1967 37 NA NA NOT_NAMED 1967-06-17 06:00:00 TS 32.2000 -78.0000 hurdat_atl main 158 114 O_____________ hurdat_atl AL031967 32.2000 -78.0000 TD -1 8 303
1967166N27284 1967 37 NA NA NOT_NAMED 1967-06-17 09:00:00 TS 32.4923 -78.2873 main 114 78 P_____________ AL031967 32.4923 -78.2873 TD -1 7 325
1967166N27284 1967 37 NA NA NOT_NAMED 1967-06-17 12:00:00 TS 32.8000 -78.5000 hurdat_atl main 78 43 O_____________ hurdat_atl AL031967 32.8000 -78.5000 TD -1 6 317
1967166N27284 1967 37 NA NA NOT_NAMED 1967-06-17 15:00:00 TS 32.9648 -78.8047 main 43 30 P_____________ AL031967 32.9648 -78.8047 TD -1 5 312
1967166N27284 1967 37 NA NA NOT_NAMED 1967-06-17 18:00:00 TS 33.1000 -78.9000 hurdat_atl main 30 30 O_____________ hurdat_atl AL031967 33.1000 -78.9000 TD -1 4 41
1967166N27284 1967 37 NA NA NOT_NAMED 1967-06-17 21:00:00 TS 33.2784 -78.4808 main 57 44 P_____________ AL031967 33.2784 -78.4808 TD -1 9 62
1967166N27284 1967 37 NA NA NOT_NAMED 1967-06-18 00:00:00 TS 33.5000 -78.0000 hurdat_atl main 44 14 O_____________ hurdat_atl AL031967 33.5000 -78.0000 TD -1 7 45
1967166N27284 1967 37 NA NA NOT_NAMED 1967-06-18 03:00:00 TS 33.7820 -77.8766 main 14 0 P_____________ AL031967 33.7820 -77.8766 TD -1 6 0
1967166N27284 1967 37 NA NA NOT_NAMED 1967-06-18 06:00:00 TS 34.1000 -78.0000 hurdat_atl main 0 O_____________ hurdat_atl AL031967 34.1000 -78.0000 TD -1 7 341

About IBTrACS Database

This database is a web-friendly format of International Best Track Archive for Climate Stewardship (IBTrACS), a global best track data archive curated by NOAA dating back to 1842.

Updated: 2021-11-26